KLMT/LMT METAR and TAF weather

Enter ICAO airport designator
Station Type Date Time Source
KLMT METAR 2020/07/06 01:53 UTC NOAA

KLMT 060153Z 34012KT 10SM CLR 25/M04 A3007 RMK AO2 SLP149 T02501039


Station Type Date Time Source
KLMT Decoded METAR 2020/07/06 01:53 UTC NOAA

KLAMATH FALLS INTERNATIONAL AIRPORT, OR, United States (KLMT) 42-09N 121-43W 1246M
Jul 05, 2020 - 09:53 PM EDT / 2020.07.06 0153 UTC
Wind: from the NNW (340 degrees) at 14 MPH (12 KT):0
Visibility: 10 mile(s):0
Sky conditions: clear
Temperature: 77.0 F (25.0 C)
Dew Point: 25.0 F (-3.9 C)
Relative Humidity: 14%
Pressure (altimeter): 30.07 in. Hg (1018 hPa)
ob: KLMT 060153Z 34012KT 10SM CLR 25/M04 A3007 RMK AO2 SLP149 T02501039
cycle: 2

Station Type Date Time Source
KLMT TAF 2020/07/05 18:36 UTC NOAA

TAF KLMT 051732Z 0518/0618 VRB03KT P6SM SKC
FM052100 31012G18KT P6SM SKC
FM060500 32005KT P6SM SKC

Example: see airport list